Weather at Congonhas Airport

Public forecast

Using degrees Celsius for public forecast. Weather courtesy of forecast.io.

Current aviation weather report (METAR) for Congonhas Airport

2024/06/22 10:00 (retrieved 17 minutes ago)

SBSP 221000Z 04005KT 8000 NSC 16/11 Q1020

Aviation forecast (TAF) for Congonhas Airport

2024/06/22 06:00 (retrieved 4 hours ago)

TAF SBSP 220430Z 2206/2218 03004KT CAVOK TN15/2209Z TX26/2218Z BECMG 2212/2214 01006KT BECMG 2215/2217 34010KT RMK PHG